sensor_id;sensor_type;location;lat;lon;timestamp;pressure;altitude;pressure_sealevel;temperature;humidity
59073;BME280;44859;51.934;15.554;2023-07-08T00:01:19;100294.25;;;17.38;55.07
59073;BME280;44859;51.934;15.554;2023-07-08T00:03:48;100293.88;;;17.34;55.08
59073;BME280;44859;51.934;15.554;2023-07-08T00:06:20;100290.23;;;17.30;55.03
59073;BME280;44859;51.934;15.554;2023-07-08T00:08:50;100291.86;;;17.29;55.30
59073;BME280;44859;51.934;15.554;2023-07-08T00:11:18;100287.09;;;17.26;55.17
59073;BME280;44859;51.934;15.554;2023-07-08T00:14:07;100288.63;;;17.24;55.28
59073;BME280;44859;51.934;15.554;2023-07-08T00:16:45;100288.46;;;17.27;55.01
59073;BME280;44859;51.934;15.554;2023-07-08T00:19:14;100287.10;;;17.29;55.12
59073;BME280;44859;51.934;15.554;2023-07-08T00:21:47;100285.48;;;17.29;55.16
59073;BME280;44859;51.934;15.554;2023-07-08T00:24:39;100286.50;;;17.27;55.54
59073;BME280;44859;51.934;15.554;2023-07-08T00:27:11;100286.52;;;17.22;55.47
59073;BME280;44859;51.934;15.554;2023-07-08T00:29:49;100286.70;;;17.16;56.08
59073;BME280;44859;51.934;15.554;2023-07-08T00:32:18;100283.71;;;17.08;56.24
59073;BME280;44859;51.934;15.554;2023-07-08T00:34:52;100284.55;;;17.01;56.22
59073;BME280;44859;51.934;15.554;2023-07-08T00:37:20;100280.55;;;16.95;56.37
59073;BME280;44859;51.934;15.554;2023-07-08T00:39:49;100278.48;;;16.91;56.21
59073;BME280;44859;51.934;15.554;2023-07-08T00:42:27;100276.55;;;16.88;56.57
59073;BME280;44859;51.934;15.554;2023-07-08T00:44:55;100275.84;;;16.91;56.92
59073;BME280;44859;51.934;15.554;2023-07-08T00:47:24;100274.92;;;16.88;56.86
59073;BME280;44859;51.934;15.554;2023-07-08T00:50:00;100272.13;;;16.85;57.07
59073;BME280;44859;51.934;15.554;2023-07-08T00:52:40;100268.97;;;16.79;57.16
59073;BME280;44859;51.934;15.554;2023-07-08T00:55:10;100270.28;;;16.75;56.95
59073;BME280;44859;51.934;15.554;2023-07-08T00:57:43;100270.74;;;16.74;57.36
59073;BME280;44859;51.934;15.554;2023-07-08T01:00:33;100267.18;;;16.71;57.32
59073;BME280;44859;51.934;15.554;2023-07-08T01:03:11;100267.69;;;16.74;57.38
59073;BME280;44859;51.934;15.554;2023-07-08T01:05:40;100267.60;;;16.83;57.03
59073;BME280;44859;51.934;15.554;2023-07-08T01:08:20;100269.91;;;16.81;57.42
59073;BME280;44859;51.934;15.554;2023-07-08T01:11:00;100267.40;;;16.73;58.05
59073;BME280;44859;51.934;15.554;2023-07-08T01:13:51;100267.65;;;16.67;57.80
59073;BME280;44859;51.934;15.554;2023-07-08T01:16:22;100268.46;;;16.60;58.13
59073;BME280;44859;51.934;15.554;2023-07-08T01:18:51;100271.98;;;16.55;58.34
59073;BME280;44859;51.934;15.554;2023-07-08T01:24:36;100268.93;;;16.45;58.74
59073;BME280;44859;51.934;15.554;2023-07-08T01:27:10;100266.19;;;16.41;58.83
59073;BME280;44859;51.934;15.554;2023-07-08T01:29:39;100262.54;;;16.39;59.05
59073;BME280;44859;51.934;15.554;2023-07-08T01:32:13;100262.16;;;16.40;59.05
59073;BME280;44859;51.934;15.554;2023-07-08T01:34:49;100260.91;;;16.37;59.12
59073;BME280;44859;51.934;15.554;2023-07-08T01:37:54;100258.54;;;16.33;59.27
59073;BME280;44859;51.934;15.554;2023-07-08T01:40:30;100255.17;;;16.33;59.49
59073;BME280;44859;51.934;15.554;2023-07-08T01:43:31;100251.97;;;16.30;59.46
59073;BME280;44859;51.934;15.554;2023-07-08T01:46:01;100250.48;;;16.26;59.64
59073;BME280;44859;51.934;15.554;2023-07-08T01:48:56;100249.80;;;16.23;59.90
59073;BME280;44859;51.934;15.554;2023-07-08T01:51:26;100249.52;;;16.22;60.03
59073;BME280;44859;51.934;15.554;2023-07-08T01:53:59;100248.80;;;16.19;60.21
59073;BME280;44859;51.934;15.554;2023-07-08T01:56:31;100251.98;;;16.20;59.97
59073;BME280;44859;51.934;15.554;2023-07-08T01:59:02;100252.11;;;16.23;59.89
59073;BME280;44859;51.934;15.554;2023-07-08T02:01:31;100247.98;;;16.29;59.85
59073;BME280;44859;51.934;15.554;2023-07-08T02:04:00;100249.02;;;16.32;60.29
59073;BME280;44859;51.934;15.554;2023-07-08T02:06:32;100250.12;;;16.26;60.14
59073;BME280;44859;51.934;15.554;2023-07-08T02:09:18;100246.16;;;16.25;60.32
59073;BME280;44859;51.934;15.554;2023-07-08T02:11:57;100242.03;;;16.23;60.21
59073;BME280;44859;51.934;15.554;2023-07-08T02:14:36;100238.68;;;16.20;60.40
59073;BME280;44859;51.934;15.554;2023-07-08T02:17:14;100232.81;;;16.17;60.56
59073;BME280;44859;51.934;15.554;2023-07-08T02:19:44;100237.20;;;16.14;60.64
59073;BME280;44859;51.934;15.554;2023-07-08T02:22:13;100235.04;;;16.10;60.67
59073;BME280;44859;51.934;15.554;2023-07-08T02:24:41;100234.83;;;16.08;60.61
59073;BME280;44859;51.934;15.554;2023-07-08T02:27:10;100232.73;;;16.07;60.81
59073;BME280;44859;51.934;15.554;2023-07-08T02:30:09;100234.67;;;16.05;60.89
59073;BME280;44859;51.934;15.554;2023-07-08T02:32:37;100236.04;;;16.00;60.95
59073;BME280;44859;51.934;15.554;2023-07-08T02:35:11;100237.29;;;15.97;60.86
59073;BME280;44859;51.934;15.554;2023-07-08T02:37:39;100234.02;;;15.98;60.89
59073;BME280;44859;51.934;15.554;2023-07-08T02:43:10;100240.34;;;15.94;61.09
59073;BME280;44859;51.934;15.554;2023-07-08T02:45:38;100242.78;;;15.91;61.17
59073;BME280;44859;51.934;15.554;2023-07-08T02:48:17;100239.55;;;15.92;60.92
59073;BME280;44859;51.934;15.554;2023-07-08T02:50:49;100242.74;;;15.92;61.15
59073;BME280;44859;51.934;15.554;2023-07-08T02:53:47;100241.42;;;15.93;61.14
59073;BME280;44859;51.934;15.554;2023-07-08T02:56:25;100240.23;;;15.95;61.09
59073;BME280;44859;51.934;15.554;2023-07-08T02:58:56;100239.52;;;15.98;61.22
59073;BME280;44859;51.934;15.554;2023-07-08T03:01:25;100236.29;;;15.99;60.93
59073;BME280;44859;51.934;15.554;2023-07-08T03:03:55;100240.16;;;15.99;61.35
59073;BME280;44859;51.934;15.554;2023-07-08T03:06:31;100240.05;;;16.01;61.23
59073;BME280;44859;51.934;15.554;2023-07-08T03:09:01;100237.48;;;16.10;61.21
59073;BME280;44859;51.934;15.554;2023-07-08T03:11:32;100237.12;;;16.19;60.96
59073;BME280;44859;51.934;15.554;2023-07-08T03:14:03;100236.04;;;16.22;60.78
59073;BME280;44859;51.934;15.554;2023-07-08T03:16:32;100237.14;;;16.27;60.50
59073;BME280;44859;51.934;15.554;2023-07-08T03:19:04;100235.88;;;16.30;60.39
59073;BME280;44859;51.934;15.554;2023-07-08T03:21:43;100237.75;;;16.36;60.19
59073;BME280;44859;51.934;15.554;2023-07-08T03:24:12;100237.49;;;16.40;60.48
59073;BME280;44859;51.934;15.554;2023-07-08T03:26:41;100239.96;;;16.43;59.98
59073;BME280;44859;51.934;15.554;2023-07-08T03:29:22;100237.36;;;16.56;59.51
59073;BME280;44859;51.934;15.554;2023-07-08T03:32:17;100239.34;;;16.95;58.39
59073;BME280;44859;51.934;15.554;2023-07-08T03:34:54;100244.10;;;17.34;57.44
59073;BME280;44859;51.934;15.554;2023-07-08T03:37:37;100242.35;;;17.67;56.51
59073;BME280;44859;51.934;15.554;2023-07-08T03:40:13;100246.17;;;17.93;55.69
59073;BME280;44859;51.934;15.554;2023-07-08T03:42:45;100247.70;;;18.12;55.21
59073;BME280;44859;51.934;15.554;2023-07-08T03:45:15;100243.28;;;18.24;54.85
59073;BME280;44859;51.934;15.554;2023-07-08T03:47:43;100244.82;;;18.29;54.52
59073;BME280;44859;51.934;15.554;2023-07-08T03:50:22;100245.77;;;18.33;54.34
59073;BME280;44859;51.934;15.554;2023-07-08T03:53:03;100245.54;;;18.34;54.17
59073;BME280;44859;51.934;15.554;2023-07-08T03:55:31;100241.61;;;18.32;54.20
59073;BME280;44859;51.934;15.554;2023-07-08T03:58:11;100241.84;;;18.26;54.24
59073;BME280;44859;51.934;15.554;2023-07-08T04:01:08;100242.79;;;18.23;54.28
59073;BME280;44859;51.934;15.554;2023-07-08T04:04:04;100243.44;;;18.19;54.20
59073;BME280;44859;51.934;15.554;2023-07-08T04:06:33;100243.30;;;18.16;54.30
59073;BME280;44859;51.934;15.554;2023-07-08T04:09:02;100248.70;;;18.13;54.27
59073;BME280;44859;51.934;15.554;2023-07-08T04:11:52;100247.13;;;18.10;54.47
59073;BME280;44859;51.934;15.554;2023-07-08T04:14:36;100240.76;;;18.07;54.46
59073;BME280;44859;51.934;15.554;2023-07-08T04:17:06;100243.17;;;18.06;54.45
59073;BME280;44859;51.934;15.554;2023-07-08T04:19:35;100244.70;;;18.04;54.55
59073;BME280;44859;51.934;15.554;2023-07-08T04:22:11;100245.41;;;18.04;54.58
59073;BME280;44859;51.934;15.554;2023-07-08T04:24:39;100244.88;;;18.04;54.63
59073;BME280;44859;51.934;15.554;2023-07-08T04:27:21;100244.05;;;18.06;54.47
59073;BME280;44859;51.934;15.554;2023-07-08T04:29:56;100239.91;;;18.07;54.64
59073;BME280;44859;51.934;15.554;2023-07-08T04:32:33;100235.42;;;18.07;54.72
59073;BME280;44859;51.934;15.554;2023-07-08T04:35:03;100230.54;;;18.08;54.90
59073;BME280;44859;51.934;15.554;2023-07-08T04:37:31;100237.18;;;18.10;54.81
59073;BME280;44859;51.934;15.554;2023-07-08T04:40:00;100237.73;;;18.15;54.78
59073;BME280;44859;51.934;15.554;2023-07-08T04:42:28;100240.81;;;18.21;54.74
59073;BME280;44859;51.934;15.554;2023-07-08T04:44:57;100239.62;;;18.27;54.65
59073;BME280;44859;51.934;15.554;2023-07-08T04:47:26;100237.10;;;18.35;54.63
59073;BME280;44859;51.934;15.554;2023-07-08T04:49:57;100236.90;;;18.43;54.34
59073;BME280;44859;51.934;15.554;2023-07-08T04:52:26;100237.52;;;18.49;54.45
59073;BME280;44859;51.934;15.554;2023-07-08T04:54:54;100240.02;;;18.56;54.28
59073;BME280;44859;51.934;15.554;2023-07-08T04:57:23;100237.94;;;18.62;54.20
59073;BME280;44859;51.934;15.554;2023-07-08T04:59:57;100238.78;;;18.67;54.08
59073;BME280;44859;51.934;15.554;2023-07-08T05:02:28;100239.29;;;18.73;54.16
59073;BME280;44859;51.934;15.554;2023-07-08T05:04:56;100238.41;;;18.79;54.15
59073;BME280;44859;51.934;15.554;2023-07-08T05:07:25;100239.05;;;18.88;54.02
59073;BME280;44859;51.934;15.554;2023-07-08T05:09:53;100238.63;;;18.98;53.92
59073;BME280;44859;51.934;15.554;2023-07-08T05:12:32;100245.97;;;19.09;53.65
59073;BME280;44859;51.934;15.554;2023-07-08T05:15:01;100245.35;;;19.24;53.78
59073;BME280;44859;51.934;15.554;2023-07-08T05:17:30;100247.67;;;19.38;53.57
59073;BME280;44859;51.934;15.554;2023-07-08T05:19:59;100243.13;;;19.57;53.35
59073;BME280;44859;51.934;15.554;2023-07-08T05:22:38;100240.04;;;19.94;53.06
59073;BME280;44859;51.934;15.554;2023-07-08T05:25:07;100238.58;;;20.19;52.96
59073;BME280;44859;51.934;15.554;2023-07-08T05:27:38;100236.84;;;20.38;52.55
59073;BME280;44859;51.934;15.554;2023-07-08T05:30:13;100239.02;;;20.59;52.12
59073;BME280;44859;51.934;15.554;2023-07-08T05:32:43;100235.20;;;20.92;51.72
59073;BME280;44859;51.934;15.554;2023-07-08T05:35:12;100237.31;;;21.40;51.22
59073;BME280;44859;51.934;15.554;2023-07-08T05:37:42;100231.73;;;22.20;50.43
59073;BME280;44859;51.934;15.554;2023-07-08T05:40:20;100232.95;;;22.65;49.34
59073;BME280;44859;51.934;15.554;2023-07-08T05:42:58;100234.63;;;22.65;47.95
59073;BME280;44859;51.934;15.554;2023-07-08T05:45:26;100236.06;;;22.67;47.76
59073;BME280;44859;51.934;15.554;2023-07-08T05:47:54;100234.88;;;22.97;47.50
59073;BME280;44859;51.934;15.554;2023-07-08T05:50:23;100233.71;;;23.46;46.99
59073;BME280;44859;51.934;15.554;2023-07-08T05:52:57;100233.01;;;24.17;45.67
59073;BME280;44859;51.934;15.554;2023-07-08T05:55:26;100237.78;;;24.23;44.72
59073;BME280;44859;51.934;15.554;2023-07-08T05:57:57;100239.21;;;24.22;44.38
59073;BME280;44859;51.934;15.554;2023-07-08T06:00:34;100240.61;;;24.20;44.14
59073;BME280;44859;51.934;15.554;2023-07-08T06:03:06;100238.36;;;24.48;43.83
59073;BME280;44859;51.934;15.554;2023-07-08T06:05:38;100239.15;;;24.66;43.27
59073;BME280;44859;51.934;15.554;2023-07-08T06:08:08;100239.55;;;24.49;42.84
59073;BME280;44859;51.934;15.554;2023-07-08T06:10:45;100244.03;;;24.47;42.66
59073;BME280;44859;51.934;15.554;2023-07-08T06:13:14;100244.69;;;24.48;42.59
59073;BME280;44859;51.934;15.554;2023-07-08T06:15:43;100248.02;;;24.49;42.26
59073;BME280;44859;51.934;15.554;2023-07-08T06:18:14;100246.91;;;24.69;42.30
59073;BME280;44859;51.934;15.554;2023-07-08T06:20:56;100244.25;;;25.34;41.81
59073;BME280;44859;51.934;15.554;2023-07-08T06:23:25;100242.24;;;25.91;40.75
59073;BME280;44859;51.934;15.554;2023-07-08T06:25:54;100242.20;;;26.37;40.29
59073;BME280;44859;51.934;15.554;2023-07-08T06:28:23;100238.33;;;26.73;39.96
59073;BME280;44859;51.934;15.554;2023-07-08T06:30:52;100239.38;;;27.12;39.43
59073;BME280;44859;51.934;15.554;2023-07-08T06:33:21;100241.52;;;27.47;39.03
59073;BME280;44859;51.934;15.554;2023-07-08T06:35:49;100246.52;;;27.81;38.28
59073;BME280;44859;51.934;15.554;2023-07-08T06:38:18;100238.66;;;28.08;37.71
59073;BME280;44859;51.934;15.554;2023-07-08T06:40:46;100239.90;;;28.16;37.03
59073;BME280;44859;51.934;15.554;2023-07-08T06:43:15;100242.41;;;28.26;36.61
59073;BME280;44859;51.934;15.554;2023-07-08T06:45:43;100244.66;;;28.15;35.47
59073;BME280;44859;51.934;15.554;2023-07-08T06:48:12;100243.86;;;27.72;35.73
59073;BME280;44859;51.934;15.554;2023-07-08T06:50:47;100247.23;;;27.74;35.99
59073;BME280;44859;51.934;15.554;2023-07-08T06:53:15;100247.83;;;27.83;35.79
59073;BME280;44859;51.934;15.554;2023-07-08T06:55:49;100248.73;;;28.02;35.67
59073;BME280;44859;51.934;15.554;2023-07-08T06:58:18;100252.23;;;27.99;35.28
59073;BME280;44859;51.934;15.554;2023-07-08T07:00:47;100251.92;;;27.80;35.44
59073;BME280;44859;51.934;15.554;2023-07-08T07:03:15;100249.63;;;27.82;35.89
59073;BME280;44859;51.934;15.554;2023-07-08T07:05:44;100242.70;;;28.08;35.80
59073;BME280;44859;51.934;15.554;2023-07-08T07:08:12;100245.06;;;28.25;35.15
59073;BME280;44859;51.934;15.554;2023-07-08T07:10:44;100239.37;;;28.26;35.08
59073;BME280;44859;51.934;15.554;2023-07-08T07:13:12;100242.29;;;28.24;34.73
59073;BME280;44859;51.934;15.554;2023-07-08T07:15:41;100246.27;;;27.89;34.82
59073;BME280;44859;51.934;15.554;2023-07-08T07:18:10;100243.91;;;27.57;35.37
59073;BME280;44859;51.934;15.554;2023-07-08T07:20:47;100239.52;;;27.47;35.54
59073;BME280;44859;51.934;15.554;2023-07-08T07:23:16;100237.29;;;27.54;35.75
59073;BME280;44859;51.934;15.554;2023-07-08T07:25:46;100239.11;;;27.65;35.90
59073;BME280;44859;51.934;15.554;2023-07-08T07:28:18;100242.35;;;27.59;36.31
59073;BME280;44859;51.934;15.554;2023-07-08T07:30:47;100243.63;;;27.41;36.62
59073;BME280;44859;51.934;15.554;2023-07-08T07:33:23;100244.27;;;27.19;37.05
59073;BME280;44859;51.934;15.554;2023-07-08T07:35:52;100245.57;;;26.99;36.73
59073;BME280;44859;51.934;15.554;2023-07-08T07:38:21;100247.62;;;26.85;35.95
59073;BME280;44859;51.934;15.554;2023-07-08T07:40:52;100246.68;;;26.79;35.37
59073;BME280;44859;51.934;15.554;2023-07-08T07:43:22;100247.50;;;26.81;34.42
59073;BME280;44859;51.934;15.554;2023-07-08T07:45:51;100249.39;;;26.86;34.32
59073;BME280;44859;51.934;15.554;2023-07-08T07:48:20;100246.61;;;26.80;33.29
59073;BME280;44859;51.934;15.554;2023-07-08T07:50:52;100242.45;;;26.68;33.99
59073;BME280;44859;51.934;15.554;2023-07-08T07:53:23;100239.34;;;26.90;34.65
59073;BME280;44859;51.934;15.554;2023-07-08T07:56:02;100235.63;;;27.04;34.16
59073;BME280;44859;51.934;15.554;2023-07-08T07:58:37;100238.38;;;27.28;33.82
59073;BME280;44859;51.934;15.554;2023-07-08T08:01:05;100244.58;;;27.40;33.60
59073;BME280;44859;51.934;15.554;2023-07-08T08:03:34;100248.23;;;27.40;33.05
59073;BME280;44859;51.934;15.554;2023-07-08T08:06:03;100246.95;;;27.39;32.98
59073;BME280;44859;51.934;15.554;2023-07-08T08:08:31;100244.83;;;27.25;33.64
59073;BME280;44859;51.934;15.554;2023-07-08T08:11:03;100244.09;;;27.19;33.95
59073;BME280;44859;51.934;15.554;2023-07-08T08:13:32;100248.44;;;27.12;33.68
59073;BME280;44859;51.934;15.554;2023-07-08T08:16:01;100249.11;;;27.09;34.39
59073;BME280;44859;51.934;15.554;2023-07-08T08:18:30;100251.90;;;27.25;34.57
59073;BME280;44859;51.934;15.554;2023-07-08T08:20:59;100251.21;;;27.45;34.34
59073;BME280;44859;51.934;15.554;2023-07-08T08:23:28;100254.69;;;27.50;33.72
59073;BME280;44859;51.934;15.554;2023-07-08T08:25:57;100254.25;;;27.60;34.46
59073;BME280;44859;51.934;15.554;2023-07-08T08:28:25;100252.80;;;27.92;34.36
59073;BME280;44859;51.934;15.554;2023-07-08T08:30:54;100246.56;;;28.17;33.53
59073;BME280;44859;51.934;15.554;2023-07-08T08:33:23;100247.10;;;28.40;33.50
59073;BME280;44859;51.934;15.554;2023-07-08T08:35:51;100249.08;;;28.42;33.71
59073;BME280;44859;51.934;15.554;2023-07-08T08:38:20;100247.05;;;28.54;33.32
59073;BME280;44859;51.934;15.554;2023-07-08T08:40:48;100243.77;;;28.33;32.93
59073;BME280;44859;51.934;15.554;2023-07-08T08:43:23;100242.48;;;28.19;33.06
59073;BME280;44859;51.934;15.554;2023-07-08T08:46:02;100242.73;;;28.12;32.65
59073;BME280;44859;51.934;15.554;2023-07-08T08:48:40;100246.61;;;28.02;31.75
59073;BME280;44859;51.934;15.554;2023-07-08T08:51:13;100244.17;;;28.08;32.36
59073;BME280;44859;51.934;15.554;2023-07-08T08:53:43;100248.70;;;28.28;32.42
59073;BME280;44859;51.934;15.554;2023-07-08T08:56:25;100248.05;;;28.33;32.68
59073;BME280;44859;51.934;15.554;2023-07-08T09:01:44;100242.63;;;28.47;32.85
59073;BME280;44859;51.934;15.554;2023-07-08T09:04:20;100241.17;;;28.52;32.48
59073;BME280;44859;51.934;15.554;2023-07-08T09:06:52;100232.46;;;28.74;32.57
59073;BME280;44859;51.934;15.554;2023-07-08T09:09:37;100235.19;;;28.80;32.53
59073;BME280;44859;51.934;15.554;2023-07-08T09:12:27;100232.83;;;28.79;32.60
59073;BME280;44859;51.934;15.554;2023-07-08T09:14:57;100234.19;;;28.90;32.47
59073;BME280;44859;51.934;15.554;2023-07-08T09:17:31;100230.70;;;28.92;32.35
59073;BME280;44859;51.934;15.554;2023-07-08T09:20:24;100229.93;;;29.15;32.03
59073;BME280;44859;51.934;15.554;2023-07-08T09:26:04;100230.14;;;29.39;30.75
59073;BME280;44859;51.934;15.554;2023-07-08T09:28:41;100229.74;;;29.47;30.61
59073;BME280;44859;51.934;15.554;2023-07-08T09:31:28;100227.27;;;29.56;30.91
59073;BME280;44859;51.934;15.554;2023-07-08T09:36:43;100229.73;;;29.29;29.05
59073;BME280;44859;51.934;15.554;2023-07-08T09:39:14;100230.26;;;28.85;29.11
59073;BME280;44859;51.934;15.554;2023-07-08T09:41:45;100227.63;;;28.69;29.70
59073;BME280;44859;51.934;15.554;2023-07-08T09:44:20;100223.26;;;28.93;29.27
59073;BME280;44859;51.934;15.554;2023-07-08T09:46:55;100223.23;;;29.18;28.57
59073;BME280;44859;51.934;15.554;2023-07-08T09:49:32;100219.23;;;29.32;28.25
59073;BME280;44859;51.934;15.554;2023-07-08T09:52:02;100216.00;;;29.50;28.49
59073;BME280;44859;51.934;15.554;2023-07-08T09:54:34;100215.35;;;29.73;28.39
59073;BME280;44859;51.934;15.554;2023-07-08T09:57:12;100212.42;;;29.89;27.77
59073;BME280;44859;51.934;15.554;2023-07-08T09:59:51;100213.23;;;29.75;28.05
59073;BME280;44859;51.934;15.554;2023-07-08T10:02:32;100204.17;;;29.68;28.03
59073;BME280;44859;51.934;15.554;2023-07-08T10:05:23;100195.20;;;29.55;28.28
59073;BME280;44859;51.934;15.554;2023-07-08T10:07:55;100208.73;;;29.55;27.69
59073;BME280;44859;51.934;15.554;2023-07-08T10:10:38;100213.19;;;29.61;27.63
59073;BME280;44859;51.934;15.554;2023-07-08T10:19:12;100214.98;;;29.67;27.80
59073;BME280;44859;51.934;15.554;2023-07-08T10:25:08;100208.02;;;29.62;26.63
59073;BME280;44859;51.934;15.554;2023-07-08T10:30:27;100198.46;;;29.91;26.80
59073;BME280;44859;51.934;15.554;2023-07-08T10:33:21;100204.02;;;30.23;26.52
59073;BME280;44859;51.934;15.554;2023-07-08T10:36:19;100199.27;;;30.28;26.04
59073;BME280;44859;51.934;15.554;2023-07-08T10:42:01;100196.35;;;30.08;25.75
59073;BME280;44859;51.934;15.554;2023-07-08T10:44:44;100189.25;;;29.82;25.82
59073;BME280;44859;51.934;15.554;2023-07-08T11:06:04;100170.71;;;29.73;25.57
59073;BME280;44859;51.934;15.554;2023-07-08T11:08:41;100168.73;;;29.78;25.27
59073;BME280;44859;51.934;15.554;2023-07-08T11:11:37;100164.67;;;30.08;25.94
59073;BME280;44859;51.934;15.554;2023-07-08T11:14:14;100161.73;;;30.58;25.62
59073;BME280;44859;51.934;15.554;2023-07-08T11:17:15;100156.27;;;30.73;25.10
59073;BME280;44859;51.934;15.554;2023-07-08T11:19:57;100159.14;;;30.74;25.70
59073;BME280;44859;51.934;15.554;2023-07-08T11:22:34;100161.33;;;30.59;24.89
59073;BME280;44859;51.934;15.554;2023-07-08T11:25:26;100157.35;;;30.33;25.63
59073;BME280;44859;51.934;15.554;2023-07-08T11:27:59;100161.46;;;30.35;25.68
59073;BME280;44859;51.934;15.554;2023-07-08T11:30:32;100161.61;;;30.03;25.40
59073;BME280;44859;51.934;15.554;2023-07-08T11:33:10;100162.23;;;29.73;25.91
59073;BME280;44859;51.934;15.554;2023-07-08T11:36:03;100159.21;;;29.95;25.92
59073;BME280;44859;51.934;15.554;2023-07-08T11:38:33;100157.92;;;30.10;26.05
59073;BME280;44859;51.934;15.554;2023-07-08T11:41:09;100159.39;;;30.01;25.32
59073;BME280;44859;51.934;15.554;2023-07-08T11:43:47;100151.11;;;30.00;24.99
59073;BME280;44859;51.934;15.554;2023-07-08T11:46:25;100147.58;;;30.16;25.39
59073;BME280;44859;51.934;15.554;2023-07-08T11:49:03;100148.98;;;30.55;25.16
59073;BME280;44859;51.934;15.554;2023-07-08T11:51:36;100147.99;;;30.57;24.61
59073;BME280;44859;51.934;15.554;2023-07-08T11:54:13;100150.59;;;30.79;24.87
59073;BME280;44859;51.934;15.554;2023-07-08T11:57:05;100151.80;;;31.09;24.29
59073;BME280;44859;51.934;15.554;2023-07-08T11:59:38;100144.70;;;30.87;24.11
59073;BME280;44859;51.934;15.554;2023-07-08T12:02:17;100141.89;;;31.08;24.45
59073;BME280;44859;51.934;15.554;2023-07-08T12:04:55;100140.54;;;31.15;23.61
59073;BME280;44859;51.934;15.554;2023-07-08T12:07:37;100129.56;;;30.80;23.32
59073;BME280;44859;51.934;15.554;2023-07-08T12:10:13;100128.44;;;30.88;24.30
59073;BME280;44859;51.934;15.554;2023-07-08T12:12:44;100125.50;;;31.20;23.79
59073;BME280;44859;51.934;15.554;2023-07-08T12:15:25;100124.20;;;31.41;23.71
59073;BME280;44859;51.934;15.554;2023-07-08T12:18:05;100120.98;;;31.56;24.34
59073;BME280;44859;51.934;15.554;2023-07-08T12:20:37;100128.45;;;31.43;23.76
59073;BME280;44859;51.934;15.554;2023-07-08T12:23:17;100115.05;;;31.22;23.95
59073;BME280;44859;51.934;15.554;2023-07-08T12:25:56;100110.52;;;30.46;24.41
59073;BME280;44859;51.934;15.554;2023-07-08T12:28:26;100109.50;;;30.02;24.53
59073;BME280;44859;51.934;15.554;2023-07-08T12:30:54;100110.55;;;29.85;24.65
59073;BME280;44859;51.934;15.554;2023-07-08T12:33:33;100107.36;;;29.95;24.95
59073;BME280;44859;51.934;15.554;2023-07-08T12:36:09;100103.02;;;30.38;25.11
59073;BME280;44859;51.934;15.554;2023-07-08T12:38:43;100101.02;;;30.89;25.31
59073;BME280;44859;51.934;15.554;2023-07-08T12:41:32;100097.95;;;31.28;24.81
59073;BME280;44859;51.934;15.554;2023-07-08T12:44:13;100093.70;;;31.44;24.10
59073;BME280;44859;51.934;15.554;2023-07-08T12:46:42;100094.45;;;31.41;23.96
59073;BME280;44859;51.934;15.554;2023-07-08T12:49:11;100099.96;;;31.10;23.49
59073;BME280;44859;51.934;15.554;2023-07-08T12:51:42;100100.83;;;30.81;23.75
59073;BME280;44859;51.934;15.554;2023-07-08T12:54:14;100097.21;;;30.80;24.62
59073;BME280;44859;51.934;15.554;2023-07-08T12:56:44;100096.66;;;30.96;24.35
59073;BME280;44859;51.934;15.554;2023-07-08T12:59:19;100094.40;;;31.10;24.14
59073;BME280;44859;51.934;15.554;2023-07-08T13:01:52;100095.10;;;31.18;23.85
59073;BME280;44859;51.934;15.554;2023-07-08T13:04:22;100091.36;;;31.36;24.09
59073;BME280;44859;51.934;15.554;2023-07-08T13:06:51;100087.91;;;31.57;23.53
59073;BME280;44859;51.934;15.554;2023-07-08T13:09:33;100085.91;;;31.45;23.61
59073;BME280;44859;51.934;15.554;2023-07-08T13:12:13;100084.20;;;31.36;23.65
59073;BME280;44859;51.934;15.554;2023-07-08T13:14:44;100076.72;;;31.16;23.47
59073;BME280;44859;51.934;15.554;2023-07-08T13:17:16;100078.40;;;31.29;23.92
59073;BME280;44859;51.934;15.554;2023-07-08T13:19:46;100077.83;;;31.43;23.64
59073;BME280;44859;51.934;15.554;2023-07-08T13:22:21;100075.46;;;31.51;23.11
59073;BME280;44859;51.934;15.554;2023-07-08T13:24:59;100076.84;;;31.49;22.91
59073;BME280;44859;51.934;15.554;2023-07-08T13:27:28;100081.20;;;31.56;22.89
59073;BME280;44859;51.934;15.554;2023-07-08T13:30:19;100074.84;;;31.55;22.71
59073;BME280;44859;51.934;15.554;2023-07-08T13:32:51;100073.82;;;31.23;22.47
59073;BME280;44859;51.934;15.554;2023-07-08T13:35:24;100068.07;;;30.96;22.55
59073;BME280;44859;51.934;15.554;2023-07-08T13:37:53;100071.13;;;30.88;22.62
59073;BME280;44859;51.934;15.554;2023-07-08T13:40:27;100065.42;;;30.97;22.05
59073;BME280;44859;51.934;15.554;2023-07-08T13:42:58;100067.45;;;31.01;22.02
59073;BME280;44859;51.934;15.554;2023-07-08T13:45:32;100066.10;;;30.99;22.87
59073;BME280;44859;51.934;15.554;2023-07-08T13:50:44;100064.52;;;31.01;22.62
59073;BME280;44859;51.934;15.554;2023-07-08T13:53:25;100067.77;;;31.04;23.09
59073;BME280;44859;51.934;15.554;2023-07-08T13:56:03;100063.95;;;30.97;23.16
59073;BME280;44859;51.934;15.554;2023-07-08T13:58:31;100064.97;;;30.72;23.26
59073;BME280;44859;51.934;15.554;2023-07-08T14:01:00;100062.73;;;30.43;23.63
59073;BME280;44859;51.934;15.554;2023-07-08T14:03:29;100063.25;;;29.92;23.62
59073;BME280;44859;51.934;15.554;2023-07-08T14:05:58;100066.58;;;29.64;23.62
59073;BME280;44859;51.934;15.554;2023-07-08T14:08:27;100063.19;;;29.66;24.11